»·PEaware :: UAL2302 KORD-KIAD

UAL2302 :: KORD-KIAD

FLIGHT INFORMATION

Flight Status: Arrived
Operator:
United Airlines
More flights by this operator :: More flights under this callsign
Pilot: Drew L. (13237)
Aircraft: BOEING 757-300
(B753)
More flights by this aircraft type
Origin: KORD Chicago-O'Hare Intl
United States
Destination: KIAD Washington Dulles Intl
United States
More flights between these airports :: More routes between these airports
Route: MOBLE ADIME OTENS ANEWA JERRI NUSMM MGW GIBBZ2
File this flight plan on PilotEdge
Remarks: PBN / A1B3B4B5C4D4O4 DOF / 181008 REG / N533SB EET / KZOB0021 KZDC0100 OPR / UAL PER / D TALT / KIND RMK / TCAS SIMBRIEF
Altitude:
(Current/Filed)
37,000ft
Speed:
(Current/Filed)
457kts
Departed: 07-Oct-18 11:03 PM
Arrived: 08-Oct-18 12:22 AM
Distance/Time
Traveled:
511nm/1:19
Distance/Time
To Go:
Arrived

Flight Plot

Page will automatically refresh every two minutes.

Flight plan parsing failed; only flown route is shown


Map Options




Map Legend


Flown Route
Filed Route
Departure Airport
Arrival Airport
Navaid (VOR, NDB)
Fix

Horizontal Profiles

Position Reports

Time Latitude Longitude Heading Altitude Ground
Speed
07-Oct-18 22:32 41.981565 -87.906930 112 665ft 0kts
07-Oct-18 22:33 41.981565 -87.906930 112 665ft 0kts
07-Oct-18 22:34 41.981565 -87.906930 112 665ft 0kts
07-Oct-18 22:35 41.981565 -87.906930 112 665ft 0kts
07-Oct-18 22:36 41.981565 -87.906930 112 665ft 0kts
07-Oct-18 22:37 41.981565 -87.906930 112 665ft 0kts
07-Oct-18 22:38 41.981565 -87.906930 112 665ft 0kts
07-Oct-18 22:39 41.981565 -87.906930 112 665ft 0kts
07-Oct-18 22:40 41.981565 -87.906930 112 665ft 0kts
07-Oct-18 22:41 41.981565 -87.906930 112 665ft 0kts
07-Oct-18 22:42 41.981565 -87.906930 112 665ft 0kts
07-Oct-18 22:43 41.981565 -87.906930 112 665ft 0kts
07-Oct-18 22:44 41.981565 -87.906930 112 665ft 0kts
07-Oct-18 22:45 41.981565 -87.906930 112 665ft 0kts
07-Oct-18 22:46 41.981565 -87.906930 112 665ft 0kts
07-Oct-18 22:47 41.981565 -87.906930 112 665ft 0kts
07-Oct-18 22:48 41.981565 -87.906930 112 665ft 0kts
07-Oct-18 22:49 41.981608 -87.907068 112 665ft 2kts
07-Oct-18 22:50 41.981558 -87.907736 34 667ft 2kts
07-Oct-18 22:51 41.981286 -87.907816 353 667ft 0kts
07-Oct-18 22:52 41.981286 -87.907816 353 667ft 0kts
07-Oct-18 22:53 41.982575 -87.908086 331 665ft 15kts
07-Oct-18 22:54 41.982900 -87.913872 269 668ft 16kts
07-Oct-18 22:55 41.982892 -87.917577 270 671ft 0kts
07-Oct-18 22:56 41.982892 -87.917577 270 671ft 0kts
07-Oct-18 22:57 41.982892 -87.917577 270 671ft 0kts
07-Oct-18 22:58 41.982892 -87.917577 270 671ft 0kts
07-Oct-18 22:59 41.982892 -87.917577 270 671ft 0kts
07-Oct-18 23:00 41.982892 -87.917577 270 671ft 0kts
07-Oct-18 23:01 41.982892 -87.917577 270 671ft 0kts
07-Oct-18 23:02 41.982892 -87.917577 270 671ft 0kts
07-Oct-18 23:03 41.982892 -87.917577 270 671ft 0kts
07-Oct-18 23:04 41.983894 -87.917326 89 671ft 12kts
07-Oct-18 23:05 41.983620 -87.870172 92 1697ft 193kts
07-Oct-18 23:06 41.982471 -87.797843 95 5207ft 201kts
07-Oct-18 23:07 41.978527 -87.719182 98 7963ft 248kts
07-Oct-18 23:08 41.973732 -87.615458 98 10558ft 318kts
07-Oct-18 23:09 41.967467 -87.480157 97 13142ft 395kts
07-Oct-18 23:10 41.960378 -87.331027 98 16997ft 419kts
07-Oct-18 23:11 41.951887 -87.171499 98 20400ft 440kts
07-Oct-18 23:12 41.946904 -87.005153 92 23459ft 460kts
07-Oct-18 23:13 41.949476 -86.831109 91 26183ft 476kts
07-Oct-18 23:14 41.952147 -86.650029 91 28518ft 493kts
07-Oct-18 23:15 41.954515 -86.463391 91 30756ft 505kts
07-Oct-18 23:16 41.956744 -86.277783 92 33294ft 501kts
07-Oct-18 23:17 41.933228 -86.098349 108 35495ft 488kts
07-Oct-18 23:18 41.898928 -85.922501 108 37217ft 487kts
07-Oct-18 23:19 41.864192 -85.747905 108 37248ft 485kts
07-Oct-18 23:20 41.829251 -85.573866 108 37248ft 485kts
07-Oct-18 23:21 41.793874 -85.399319 108 37243ft 485kts
07-Oct-18 23:22 41.758733 -85.227449 109 37245ft 484kts
07-Oct-18 23:23 41.723053 -85.054319 108 37247ft 484kts
07-Oct-18 23:24 41.686944 -84.880873 110 37252ft 484kts
07-Oct-18 23:25 41.625323 -84.724497 122 37265ft 477kts
07-Oct-18 23:26 41.562340 -84.568407 121 37267ft 478kts
07-Oct-18 23:27 41.500369 -84.411927 120 37268ft 478kts
07-Oct-18 23:28 41.438761 -84.256672 121 37263ft 478kts
07-Oct-18 23:29 41.376462 -84.101010 121 37265ft 477kts
07-Oct-18 23:30 41.314060 -83.945446 121 37269ft 478kts
07-Oct-18 23:31 41.251351 -83.789853 121 37259ft 478kts
07-Oct-18 23:32 41.188736 -83.634865 121 37258ft 478kts
07-Oct-18 23:33 41.125521 -83.479986 121 37257ft 478kts
07-Oct-18 23:34 41.066144 -83.334954 122 37254ft 473kts
07-Oct-18 23:35 41.006875 -83.190874 122 37256ft 468kts
07-Oct-18 23:36 40.944985 -83.040631 121 37271ft 464kts
07-Oct-18 23:37 40.887875 -82.902956 122 37281ft 469kts
07-Oct-18 23:38 40.824751 -82.752123 122 37286ft 474kts
07-Oct-18 23:39 40.761122 -82.600350 122 37286ft 474kts
07-Oct-18 23:40 40.697609 -82.448741 122 37287ft 474kts
07-Oct-18 23:41 40.634764 -82.300223 122 37283ft 473kts
07-Oct-18 23:42 40.570494 -82.149226 122 37289ft 473kts
07-Oct-18 23:43 40.505829 -81.998769 123 37292ft 473kts
07-Oct-18 23:44 40.441623 -81.848866 122 37289ft 473kts
07-Oct-18 23:45 40.376359 -81.698803 123 37288ft 472kts
07-Oct-18 23:46 40.310814 -81.549994 123 37293ft 473kts
07-Oct-18 23:47 40.245641 -81.400919 123 37290ft 473kts
07-Oct-18 23:48 40.181778 -81.252771 123 37285ft 473kts
07-Oct-18 23:49 40.116458 -81.103577 123 37288ft 473kts
07-Oct-18 23:50 40.050683 -80.954859 124 37293ft 477kts
07-Oct-18 23:51 39.984139 -80.805247 124 37300ft 478kts
07-Oct-18 23:52 39.917164 -80.655403 124 37300ft 478kts
07-Oct-18 23:53 39.851279 -80.508713 124 37319ft 478kts
07-Oct-18 23:54 39.783957 -80.359530 124 37329ft 478kts
07-Oct-18 23:55 39.717178 -80.212240 124 37319ft 478kts
07-Oct-18 23:56 39.649718 -80.064160 124 37319ft 478kts
07-Oct-18 23:57 39.581916 -79.916034 124 37320ft 478kts
07-Oct-18 23:58 39.537173 -79.753528 106 37321ft 487kts
07-Oct-18 23:59 39.506856 -79.582904 106 37322ft 487kts
08-Oct-18 00:00 39.476214 -79.412657 106 37324ft 487kts
08-Oct-18 00:01 39.452183 -79.281854 107 37343ft 486kts
08-Oct-18 00:02 39.426657 -79.141108 106 37015ft 468kts
08-Oct-18 00:03 39.392883 -78.949177 106 37019ft 473kts
08-Oct-18 00:04 39.368014 -78.810223 106 35057ft 483kts
08-Oct-18 00:05 39.334679 -78.625563 106 30669ft 434kts
08-Oct-18 00:06 39.312745 -78.504184 105 27005ft 407kts
08-Oct-18 00:07 39.285076 -78.369594 121 22727ft 372kts
08-Oct-18 00:08 39.256486 -78.312388 126 20515ft 357kts
08-Oct-18 00:09 39.201733 -78.207458 126 16303ft 333kts
08-Oct-18 00:10 39.160026 -78.128262 125 13053ft 315kts
08-Oct-18 00:11 39.104594 -78.023263 124 8602ft 297kts
08-Oct-18 00:12 39.066554 -77.953029 125 6325ft 288kts
08-Oct-18 00:13 39.021285 -77.868779 124 6328ft 286kts
08-Oct-18 00:14 38.976339 -77.784338 123 6328ft 286kts
08-Oct-18 00:15 38.958840 -77.687282 107 6319ft 266kts
08-Oct-18 00:16 38.979970 -77.610358 15 6338ft 263kts
08-Oct-18 00:17 39.052277 -77.598948 5 5586ft 262kts
08-Oct-18 00:18 39.124117 -77.589512 7 4399ft 259kts
08-Oct-18 00:19 39.147521 -77.528430 131 4340ft 212kts
08-Oct-18 00:20 39.102376 -77.483487 149 3813ft 203kts
08-Oct-18 00:21 39.050948 -77.465086 186 2960ft 199kts
08-Oct-18 00:22 39.006738 -77.473632 183 1301ft 161kts
08-Oct-18 00:23 38.968392 -77.474478 180 290ft 139kts
08-Oct-18 00:24 38.953536 -77.474673 180 290ft 0kts
08-Oct-18 00:25 38.949951 -77.471567 120 294ft 102kts
08-Oct-18 00:26 38.944728 -77.442584 22 302ft 5kts

Navigation Log

Ident Type
Flight plan parsing failed, navigation log unavailable